sensor_id;sensor_type;location;lat;lon;timestamp;pressure;altitude;pressure_sealevel;temperature;humidity
69855;BME280;57146;48.140;16.304;2023-05-24T00:01:56;99266.97;;;16.03;80.55
69855;BME280;57146;48.140;16.304;2023-05-24T00:04:23;99263.34;;;15.95;80.01
69855;BME280;57146;48.140;16.304;2023-05-24T00:06:51;99268.53;;;15.92;79.77
69855;BME280;57146;48.140;16.304;2023-05-24T00:09:18;99267.97;;;15.86;79.10
69855;BME280;57146;48.140;16.304;2023-05-24T00:11:45;99265.69;;;15.85;79.85
69855;BME280;57146;48.140;16.304;2023-05-24T00:14:12;99265.56;;;15.81;80.51
69855;BME280;57146;48.140;16.304;2023-05-24T00:16:39;99273.78;;;15.76;81.07
69855;BME280;57146;48.140;16.304;2023-05-24T00:19:06;99274.31;;;15.69;81.58
69855;BME280;57146;48.140;16.304;2023-05-24T00:21:32;99275.28;;;15.65;81.62
69855;BME280;57146;48.140;16.304;2023-05-24T00:24:00;99273.75;;;15.64;81.93
69855;BME280;57146;48.140;16.304;2023-05-24T00:26:27;99276.38;;;15.64;82.01
69855;BME280;57146;48.140;16.304;2023-05-24T00:28:54;99279.03;;;15.64;82.02
69855;BME280;57146;48.140;16.304;2023-05-24T00:31:21;99279.69;;;15.61;82.31
69855;BME280;57146;48.140;16.304;2023-05-24T00:33:48;99278.94;;;15.60;82.73
69855;BME280;57146;48.140;16.304;2023-05-24T00:36:17;99286.00;;;15.56;82.65
69855;BME280;57146;48.140;16.304;2023-05-24T00:38:46;99281.81;;;15.55;82.10
69855;BME280;57146;48.140;16.304;2023-05-24T00:41:15;99287.00;;;15.51;81.86
69855;BME280;57146;48.140;16.304;2023-05-24T00:43:42;99276.72;;;15.50;81.81
69855;BME280;57146;48.140;16.304;2023-05-24T00:46:17;99279.72;;;15.48;81.35
69855;BME280;57146;48.140;16.304;2023-05-24T00:48:44;99277.38;;;15.47;81.13
69855;BME280;57146;48.140;16.304;2023-05-24T00:51:12;99280.38;;;15.45;80.89
69855;BME280;57146;48.140;16.304;2023-05-24T00:53:46;99282.25;;;15.45;80.93
69855;BME280;57146;48.140;16.304;2023-05-24T00:56:15;99285.22;;;15.43;81.06
69855;BME280;57146;48.140;16.304;2023-05-24T00:58:43;99283.81;;;15.46;80.69
69855;BME280;57146;48.140;16.304;2023-05-24T01:01:10;99295.06;;;15.43;80.91
69855;BME280;57146;48.140;16.304;2023-05-24T01:03:37;99287.22;;;15.46;80.80
69855;BME280;57146;48.140;16.304;2023-05-24T01:06:06;99283.91;;;15.49;80.66
69855;BME280;57146;48.140;16.304;2023-05-24T01:11:24;99288.66;;;15.44;80.68
69855;BME280;57146;48.140;16.304;2023-05-24T01:16:51;99287.00;;;15.51;80.63
69855;BME280;57146;48.140;16.304;2023-05-24T01:25:47;99295.31;;;15.62;81.28
69855;BME280;57146;48.140;16.304;2023-05-24T01:28:16;99287.34;;;15.62;80.80
69855;BME280;57146;48.140;16.304;2023-05-24T01:30:44;99295.88;;;15.68;80.46
69855;BME280;57146;48.140;16.304;2023-05-24T01:33:11;99284.34;;;15.64;80.56
69855;BME280;57146;48.140;16.304;2023-05-24T01:35:39;99286.31;;;15.54;80.64
69855;BME280;57146;48.140;16.304;2023-05-24T01:38:06;99286.22;;;15.51;81.20
69855;BME280;57146;48.140;16.304;2023-05-24T01:40:33;99291.88;;;15.49;81.21
69855;BME280;57146;48.140;16.304;2023-05-24T01:45:53;99296.38;;;15.37;80.54
69855;BME280;57146;48.140;16.304;2023-05-24T01:51:06;99290.41;;;15.27;80.71
69855;BME280;57146;48.140;16.304;2023-05-24T01:53:40;99281.34;;;15.28;80.71
69855;BME280;57146;48.140;16.304;2023-05-24T01:56:10;99283.47;;;15.35;80.36
69855;BME280;57146;48.140;16.304;2023-05-24T01:58:40;99286.56;;;15.37;80.64
69855;BME280;57146;48.140;16.304;2023-05-24T02:01:08;99282.69;;;15.35;80.31
69855;BME280;57146;48.140;16.304;2023-05-24T02:03:36;99286.47;;;15.33;81.16
69855;BME280;57146;48.140;16.304;2023-05-24T02:06:04;99278.03;;;15.31;80.74
69855;BME280;57146;48.140;16.304;2023-05-24T02:08:31;99283.56;;;15.26;80.99
69855;BME280;57146;48.140;16.304;2023-05-24T02:10:59;99284.66;;;15.25;81.69
69855;BME280;57146;48.140;16.304;2023-05-24T02:13:25;99293.94;;;15.19;81.43
69855;BME280;57146;48.140;16.304;2023-05-24T02:15:52;99296.25;;;15.08;81.84
69855;BME280;57146;48.140;16.304;2023-05-24T02:18:19;99288.25;;;14.96;82.71
69855;BME280;57146;48.140;16.304;2023-05-24T02:20:47;99293.19;;;14.85;82.82
69855;BME280;57146;48.140;16.304;2023-05-24T02:23:14;99294.63;;;14.83;82.40
69855;BME280;57146;48.140;16.304;2023-05-24T02:25:41;99299.25;;;14.74;83.15
69855;BME280;57146;48.140;16.304;2023-05-24T02:28:08;99292.72;;;14.71;82.46
69855;BME280;57146;48.140;16.304;2023-05-24T02:30:35;99297.88;;;14.68;82.39
69855;BME280;57146;48.140;16.304;2023-05-24T02:33:02;99297.88;;;14.68;82.75
69855;BME280;57146;48.140;16.304;2023-05-24T02:35:29;99301.00;;;14.70;82.27
69855;BME280;57146;48.140;16.304;2023-05-24T02:37:56;99300.28;;;14.60;82.74
69855;BME280;57146;48.140;16.304;2023-05-24T02:40:23;99302.94;;;14.60;82.93
69855;BME280;57146;48.140;16.304;2023-05-24T02:42:50;99306.22;;;14.57;83.13
69855;BME280;57146;48.140;16.304;2023-05-24T02:45:16;99307.66;;;14.55;83.05
69855;BME280;57146;48.140;16.304;2023-05-24T02:47:43;99307.97;;;14.53;82.61
69855;BME280;57146;48.140;16.304;2023-05-24T02:50:10;99309.66;;;14.58;82.40
69855;BME280;57146;48.140;16.304;2023-05-24T02:52:37;99313.34;;;14.66;82.52
69855;BME280;57146;48.140;16.304;2023-05-24T02:55:05;99309.13;;;14.65;81.77
69855;BME280;57146;48.140;16.304;2023-05-24T02:57:33;99313.66;;;14.64;81.15
69855;BME280;57146;48.140;16.304;2023-05-24T03:00:00;99306.34;;;14.61;81.02
69855;BME280;57146;48.140;16.304;2023-05-24T03:02:29;99308.22;;;14.60;81.22
69855;BME280;57146;48.140;16.304;2023-05-24T03:04:56;99315.41;;;14.60;81.10
69855;BME280;57146;48.140;16.304;2023-05-24T03:07:23;99312.75;;;14.60;81.46
69855;BME280;57146;48.140;16.304;2023-05-24T03:09:50;99311.09;;;14.55;80.88
69855;BME280;57146;48.140;16.304;2023-05-24T03:12:19;99312.81;;;14.51;81.41
69855;BME280;57146;48.140;16.304;2023-05-24T03:14:45;99326.06;;;14.51;81.88
69855;BME280;57146;48.140;16.304;2023-05-24T03:17:12;99325.91;;;14.48;81.63
69855;BME280;57146;48.140;16.304;2023-05-24T03:19:39;99328.13;;;14.46;81.71
69855;BME280;57146;48.140;16.304;2023-05-24T03:22:07;99334.19;;;14.46;81.73
69855;BME280;57146;48.140;16.304;2023-05-24T03:24:34;99330.19;;;14.40;82.27
69855;BME280;57146;48.140;16.304;2023-05-24T03:27:01;99339.34;;;14.43;82.38
69855;BME280;57146;48.140;16.304;2023-05-24T03:29:28;99338.84;;;14.49;81.88
69855;BME280;57146;48.140;16.304;2023-05-24T03:31:55;99329.63;;;14.55;81.46
69855;BME280;57146;48.140;16.304;2023-05-24T03:34:23;99327.00;;;14.55;81.37
69855;BME280;57146;48.140;16.304;2023-05-24T03:36:50;99328.84;;;14.55;81.45
69855;BME280;57146;48.140;16.304;2023-05-24T03:39:17;99334.53;;;14.45;81.75
69855;BME280;57146;48.140;16.304;2023-05-24T03:41:55;99331.47;;;14.34;82.43
69855;BME280;57146;48.140;16.304;2023-05-24T03:44:22;99337.84;;;14.33;82.54
69855;BME280;57146;48.140;16.304;2023-05-24T03:46:49;99337.22;;;14.36;82.59
69855;BME280;57146;48.140;16.304;2023-05-24T03:49:16;99334.44;;;14.32;82.74
69855;BME280;57146;48.140;16.304;2023-05-24T03:51:43;99335.59;;;14.23;82.46
69855;BME280;57146;48.140;16.304;2023-05-24T03:54:10;99335.16;;;14.21;82.85
69855;BME280;57146;48.140;16.304;2023-05-24T03:56:39;99339.16;;;14.27;82.81
69855;BME280;57146;48.140;16.304;2023-05-24T03:59:07;99348.44;;;14.33;82.10
69855;BME280;57146;48.140;16.304;2023-05-24T04:01:34;99337.84;;;14.33;82.25
69855;BME280;57146;48.140;16.304;2023-05-24T04:04:02;99335.22;;;14.33;82.05
69855;BME280;57146;48.140;16.304;2023-05-24T04:06:29;99344.00;;;14.25;82.73
69855;BME280;57146;48.140;16.304;2023-05-24T04:08:58;99351.47;;;14.23;82.91
69855;BME280;57146;48.140;16.304;2023-05-24T04:11:25;99349.28;;;14.25;83.30
69855;BME280;57146;48.140;16.304;2023-05-24T04:13:54;99346.19;;;14.23;83.79
69855;BME280;57146;48.140;16.304;2023-05-24T04:16:22;99353.19;;;14.27;83.54
69855;BME280;57146;48.140;16.304;2023-05-24T04:18:49;99348.06;;;14.22;83.97
69855;BME280;57146;48.140;16.304;2023-05-24T04:21:17;99353.47;;;14.26;83.98
69855;BME280;57146;48.140;16.304;2023-05-24T04:23:44;99359.81;;;14.33;83.19
69855;BME280;57146;48.140;16.304;2023-05-24T04:26:12;99364.34;;;14.33;83.86
69855;BME280;57146;48.140;16.304;2023-05-24T04:28:39;99359.03;;;14.33;83.48
69855;BME280;57146;48.140;16.304;2023-05-24T04:31:06;99365.09;;;14.33;83.34
69855;BME280;57146;48.140;16.304;2023-05-24T04:33:33;99363.56;;;14.32;83.64
69855;BME280;57146;48.140;16.304;2023-05-24T04:36:00;99363.56;;;14.32;82.63
69855;BME280;57146;48.140;16.304;2023-05-24T04:38:28;99365.56;;;14.35;83.07
69855;BME280;57146;48.140;16.304;2023-05-24T04:40:55;99366.69;;;14.34;82.91
69855;BME280;57146;48.140;16.304;2023-05-24T04:43:21;99368.34;;;14.39;82.52
69855;BME280;57146;48.140;16.304;2023-05-24T04:45:48;99368.03;;;14.41;83.28
69855;BME280;57146;48.140;16.304;2023-05-24T04:48:15;99379.84;;;14.43;83.28
69855;BME280;57146;48.140;16.304;2023-05-24T04:50:42;99380.75;;;14.47;83.06
69855;BME280;57146;48.140;16.304;2023-05-24T04:53:09;99391.03;;;14.49;82.23
69855;BME280;57146;48.140;16.304;2023-05-24T04:55:36;99383.56;;;14.51;82.28
69855;BME280;57146;48.140;16.304;2023-05-24T04:58:04;99379.16;;;14.55;82.08
69855;BME280;57146;48.140;16.304;2023-05-24T05:00:30;99377.75;;;14.57;82.11
69855;BME280;57146;48.140;16.304;2023-05-24T05:02:57;99379.16;;;14.55;82.46
69855;BME280;57146;48.140;16.304;2023-05-24T05:05:24;99379.50;;;14.53;81.50
69855;BME280;57146;48.140;16.304;2023-05-24T05:07:51;99384.47;;;14.55;81.75
69855;BME280;57146;48.140;16.304;2023-05-24T05:10:18;99383.38;;;14.56;81.45
69855;BME280;57146;48.140;16.304;2023-05-24T05:12:49;99380.59;;;14.52;80.94
69855;BME280;57146;48.140;16.304;2023-05-24T05:15:16;99384.34;;;14.51;81.40
69855;BME280;57146;48.140;16.304;2023-05-24T05:17:42;99393.97;;;14.56;81.15
69855;BME280;57146;48.140;16.304;2023-05-24T05:20:11;99390.81;;;14.63;80.96
69855;BME280;57146;48.140;16.304;2023-05-24T05:22:38;99394.94;;;14.72;80.66
69855;BME280;57146;48.140;16.304;2023-05-24T05:25:05;99398.91;;;14.87;80.93
69855;BME280;57146;48.140;16.304;2023-05-24T05:27:32;99399.72;;;15.00;80.09
69855;BME280;57146;48.140;16.304;2023-05-24T05:29:59;99399.91;;;15.16;78.84
69855;BME280;57146;48.140;16.304;2023-05-24T05:32:26;99399.34;;;15.22;78.02
69855;BME280;57146;48.140;16.304;2023-05-24T05:34:53;99403.56;;;15.23;77.38
69855;BME280;57146;48.140;16.304;2023-05-24T05:37:19;99410.13;;;15.38;77.65
69855;BME280;57146;48.140;16.304;2023-05-24T05:39:46;99405.94;;;15.62;77.72
69855;BME280;57146;48.140;16.304;2023-05-24T05:42:13;99417.28;;;15.71;75.35
69855;BME280;57146;48.140;16.304;2023-05-24T05:44:40;99415.41;;;15.71;73.96
69855;BME280;57146;48.140;16.304;2023-05-24T05:47:07;99413.63;;;15.75;73.92
69855;BME280;57146;48.140;16.304;2023-05-24T05:49:34;99415.97;;;15.77;73.24
69855;BME280;57146;48.140;16.304;2023-05-24T05:52:02;99414.78;;;15.87;73.99
69855;BME280;57146;48.140;16.304;2023-05-24T05:54:29;99413.19;;;15.86;73.14
69855;BME280;57146;48.140;16.304;2023-05-24T05:56:56;99424.16;;;15.96;73.50
69855;BME280;57146;48.140;16.304;2023-05-24T05:59:27;99424.38;;;15.91;70.94
69855;BME280;57146;48.140;16.304;2023-05-24T06:01:53;99427.25;;;15.86;70.83
69855;BME280;57146;48.140;16.304;2023-05-24T06:04:20;99440.53;;;15.98;72.06
69855;BME280;57146;48.140;16.304;2023-05-24T06:06:47;99430.56;;;16.08;71.03
69855;BME280;57146;48.140;16.304;2023-05-24T06:09:15;99430.38;;;16.13;70.61
69855;BME280;57146;48.140;16.304;2023-05-24T06:11:42;99433.56;;;16.06;70.94
69855;BME280;57146;48.140;16.304;2023-05-24T06:14:10;99435.34;;;16.02;70.98
69855;BME280;57146;48.140;16.304;2023-05-24T06:16:37;99428.91;;;16.03;71.72
69855;BME280;57146;48.140;16.304;2023-05-24T06:19:04;99446.06;;;16.06;71.83
69855;BME280;57146;48.140;16.304;2023-05-24T06:21:32;99432.91;;;16.09;72.07
69855;BME280;57146;48.140;16.304;2023-05-24T06:23:59;99439.44;;;15.87;70.58
69855;BME280;57146;48.140;16.304;2023-05-24T06:26:26;99440.97;;;15.76;73.21
69855;BME280;57146;48.140;16.304;2023-05-24T06:28:53;99441.50;;;15.69;72.29
69855;BME280;57146;48.140;16.304;2023-05-24T06:31:20;99435.22;;;15.74;71.49
69855;BME280;57146;48.140;16.304;2023-05-24T06:33:47;99440.75;;;15.69;70.23
69855;BME280;57146;48.140;16.304;2023-05-24T06:36:28;99450.81;;;16.00;71.10
69855;BME280;57146;48.140;16.304;2023-05-24T06:38:55;99448.31;;;16.16;69.15
69855;BME280;57146;48.140;16.304;2023-05-24T06:41:22;99448.50;;;16.35;66.85
69855;BME280;57146;48.140;16.304;2023-05-24T06:43:49;99456.72;;;16.30;66.59
69855;BME280;57146;48.140;16.304;2023-05-24T06:46:16;99449.94;;;16.33;66.24
69855;BME280;57146;48.140;16.304;2023-05-24T06:48:43;99452.06;;;16.27;65.57
69855;BME280;57146;48.140;16.304;2023-05-24T06:51:10;99456.72;;;16.30;67.46
69855;BME280;57146;48.140;16.304;2023-05-24T06:53:37;99459.59;;;16.13;66.41
69855;BME280;57146;48.140;16.304;2023-05-24T06:56:04;99462.31;;;16.04;66.64
69855;BME280;57146;48.140;16.304;2023-05-24T06:58:31;99468.19;;;16.10;66.77
69855;BME280;57146;48.140;16.304;2023-05-24T07:00:57;99465.56;;;16.34;68.25
69855;BME280;57146;48.140;16.304;2023-05-24T07:03:24;99466.53;;;16.54;66.88
69855;BME280;57146;48.140;16.304;2023-05-24T07:05:51;99472.16;;;16.65;66.06
69855;BME280;57146;48.140;16.304;2023-05-24T07:08:19;99463.84;;;16.66;65.27
69855;BME280;57146;48.140;16.304;2023-05-24T07:10:46;99475.38;;;16.46;65.94
69855;BME280;57146;48.140;16.304;2023-05-24T07:13:12;99476.59;;;16.61;66.13
69855;BME280;57146;48.140;16.304;2023-05-24T07:15:40;99461.53;;;16.65;65.27
69855;BME280;57146;48.140;16.304;2023-05-24T07:18:07;99471.50;;;16.80;65.88
69855;BME280;57146;48.140;16.304;2023-05-24T07:20:34;99480.19;;;17.05;65.08
69855;BME280;57146;48.140;16.304;2023-05-24T07:23:01;99475.94;;;17.16;63.90
69855;BME280;57146;48.140;16.304;2023-05-24T07:25:29;99465.09;;;17.09;64.44
69855;BME280;57146;48.140;16.304;2023-05-24T07:27:56;99465.47;;;17.08;66.47
69855;BME280;57146;48.140;16.304;2023-05-24T07:30:23;99469.25;;;16.94;65.40
69855;BME280;57146;48.140;16.304;2023-05-24T07:32:56;99478.41;;;17.09;65.32
69855;BME280;57146;48.140;16.304;2023-05-24T07:35:23;99469.69;;;16.96;64.34
69855;BME280;57146;48.140;16.304;2023-05-24T07:37:50;99476.13;;;16.95;64.83
69855;BME280;57146;48.140;16.304;2023-05-24T07:40:17;99480.66;;;16.95;65.18
69855;BME280;57146;48.140;16.304;2023-05-24T07:42:44;99477.28;;;17.10;64.88
69855;BME280;57146;48.140;16.304;2023-05-24T07:45:10;99477.16;;;17.19;64.02
69855;BME280;57146;48.140;16.304;2023-05-24T07:47:37;99481.97;;;17.01;62.72
69855;BME280;57146;48.140;16.304;2023-05-24T07:50:05;99478.25;;;17.18;61.92
69855;BME280;57146;48.140;16.304;2023-05-24T07:52:32;99488.28;;;17.09;61.64
69855;BME280;57146;48.140;16.304;2023-05-24T07:54:59;99488.88;;;17.30;61.88
69855;BME280;57146;48.140;16.304;2023-05-24T08:00:36;99482.03;;;17.45;61.75
69855;BME280;57146;48.140;16.304;2023-05-24T08:03:04;99482.63;;;17.38;62.17
69855;BME280;57146;48.140;16.304;2023-05-24T08:05:33;99475.56;;;17.30;62.22
69855;BME280;57146;48.140;16.304;2023-05-24T08:07:59;99486.78;;;17.23;62.69
69855;BME280;57146;48.140;16.304;2023-05-24T08:10:26;99476.22;;;17.27;61.88
69855;BME280;57146;48.140;16.304;2023-05-24T08:12:53;99480.00;;;17.26;61.94
69855;BME280;57146;48.140;16.304;2023-05-24T08:15:20;99496.19;;;17.21;61.96
69855;BME280;57146;48.140;16.304;2023-05-24T08:17:47;99485.47;;;17.17;62.67
69855;BME280;57146;48.140;16.304;2023-05-24T08:20:14;99489.53;;;17.27;63.91
69855;BME280;57146;48.140;16.304;2023-05-24T08:22:43;99494.59;;;17.32;62.38
69855;BME280;57146;48.140;16.304;2023-05-24T08:25:09;99494.94;;;17.31;62.44
69855;BME280;57146;48.140;16.304;2023-05-24T08:27:37;99494.94;;;17.31;63.34
69855;BME280;57146;48.140;16.304;2023-05-24T08:30:05;99493.06;;;17.31;63.66
69855;BME280;57146;48.140;16.304;2023-05-24T08:32:32;99490.97;;;17.24;62.80
69855;BME280;57146;48.140;16.304;2023-05-24T08:34:59;99492.44;;;17.22;62.90
69855;BME280;57146;48.140;16.304;2023-05-24T08:37:44;99493.81;;;17.04;61.87
69855;BME280;57146;48.140;16.304;2023-05-24T08:40:11;99490.25;;;17.12;62.61
69855;BME280;57146;48.140;16.304;2023-05-24T08:42:38;99497.06;;;17.25;63.89
69855;BME280;57146;48.140;16.304;2023-05-24T08:45:10;99496.88;;;17.46;61.26
69855;BME280;57146;48.140;16.304;2023-05-24T08:47:38;99482.06;;;17.61;60.25
69855;BME280;57146;48.140;16.304;2023-05-24T08:50:06;99491.75;;;17.81;60.37
69855;BME280;57146;48.140;16.304;2023-05-24T08:52:34;99484.72;;;18.05;59.76
69855;BME280;57146;48.140;16.304;2023-05-24T08:55:02;99486.94;;;18.18;59.51
69855;BME280;57146;48.140;16.304;2023-05-24T08:57:31;99476.94;;;18.31;59.08
69855;BME280;57146;48.140;16.304;2023-05-24T08:59:58;99477.88;;;18.39;58.62
69855;BME280;57146;48.140;16.304;2023-05-24T09:02:25;99489.19;;;18.32;58.58
69855;BME280;57146;48.140;16.304;2023-05-24T09:04:53;99484.78;;;18.24;58.43
69855;BME280;57146;48.140;16.304;2023-05-24T09:07:21;99484.13;;;18.11;58.93
69855;BME280;57146;48.140;16.304;2023-05-24T09:09:56;99491.06;;;18.16;58.53
69855;BME280;57146;48.140;16.304;2023-05-24T09:12:25;99490.09;;;18.24;57.59
69855;BME280;57146;48.140;16.304;2023-05-24T09:15:05;99494.16;;;18.18;58.27
69855;BME280;57146;48.140;16.304;2023-05-24T09:17:36;99495.53;;;18.43;57.65
69855;BME280;57146;48.140;16.304;2023-05-24T09:20:07;99493.72;;;18.32;55.83
69855;BME280;57146;48.140;16.304;2023-05-24T09:22:36;99494.66;;;18.39;58.27
69855;BME280;57146;48.140;16.304;2023-05-24T09:25:07;99497.00;;;18.09;57.34
69855;BME280;57146;48.140;16.304;2023-05-24T09:27:34;99497.00;;;17.93;57.27
69855;BME280;57146;48.140;16.304;2023-05-24T09:30:02;99497.91;;;17.85;58.30
69855;BME280;57146;48.140;16.304;2023-05-24T09:32:29;99499.72;;;17.81;58.76
69855;BME280;57146;48.140;16.304;2023-05-24T09:34:57;99500.00;;;17.76;58.50
69855;BME280;57146;48.140;16.304;2023-05-24T09:37:25;99500.84;;;17.80;58.28
69855;BME280;57146;48.140;16.304;2023-05-24T09:39:58;99507.03;;;17.84;58.10
69855;BME280;57146;48.140;16.304;2023-05-24T09:42:26;99489.94;;;18.01;59.48
69855;BME280;57146;48.140;16.304;2023-05-24T09:44:59;99500.53;;;18.29;58.81
69855;BME280;57146;48.140;16.304;2023-05-24T09:47:28;99487.94;;;18.46;58.37
69855;BME280;57146;48.140;16.304;2023-05-24T09:49:55;99497.00;;;18.60;58.63
69855;BME280;57146;48.140;16.304;2023-05-24T09:52:22;99501.88;;;18.39;56.28
69855;BME280;57146;48.140;16.304;2023-05-24T09:54:50;99489.22;;;18.52;57.87
69855;BME280;57146;48.140;16.304;2023-05-24T09:57:17;99501.16;;;18.58;56.87
69855;BME280;57146;48.140;16.304;2023-05-24T09:59:44;99502.34;;;18.60;55.90
69855;BME280;57146;48.140;16.304;2023-05-24T10:02:12;99496.00;;;18.65;56.88
69855;BME280;57146;48.140;16.304;2023-05-24T10:04:39;99490.16;;;18.75;56.09
69855;BME280;57146;48.140;16.304;2023-05-24T10:07:07;99505.09;;;18.64;55.99
69855;BME280;57146;48.140;16.304;2023-05-24T10:09:34;99497.97;;;18.52;55.82
69855;BME280;57146;48.140;16.304;2023-05-24T10:12:03;99493.94;;;18.58;57.35
69855;BME280;57146;48.140;16.304;2023-05-24T10:14:35;99493.72;;;18.67;57.05
69855;BME280;57146;48.140;16.304;2023-05-24T10:17:06;99493.25;;;18.61;56.74
69855;BME280;57146;48.140;16.304;2023-05-24T10:19:34;99498.22;;;18.63;56.61
69855;BME280;57146;48.140;16.304;2023-05-24T10:22:07;99493.94;;;18.58;56.08
69855;BME280;57146;48.140;16.304;2023-05-24T10:24:41;99500.03;;;18.59;56.00
69855;BME280;57146;48.140;16.304;2023-05-24T10:27:13;99486.03;;;18.62;57.43
69855;BME280;57146;48.140;16.304;2023-05-24T10:29:55;99487.81;;;18.74;57.09
69855;BME280;57146;48.140;16.304;2023-05-24T10:32:25;99494.88;;;18.66;56.07
69855;BME280;57146;48.140;16.304;2023-05-24T10:34:53;99496.31;;;18.63;56.24
69855;BME280;57146;48.140;16.304;2023-05-24T10:37:20;99490.47;;;18.74;55.49
69855;BME280;57146;48.140;16.304;2023-05-24T10:39:47;99493.59;;;18.76;55.97
69855;BME280;57146;48.140;16.304;2023-05-24T10:42:14;99498.56;;;18.77;55.46
69855;BME280;57146;48.140;16.304;2023-05-24T10:44:41;99496.34;;;18.79;55.63
69855;BME280;57146;48.140;16.304;2023-05-24T10:47:08;99495.91;;;18.61;54.80
69855;BME280;57146;48.140;16.304;2023-05-24T10:49:36;99504.41;;;18.67;57.21
69855;BME280;57146;48.140;16.304;2023-05-24T10:52:08;99502.28;;;18.57;55.77
69855;BME280;57146;48.140;16.304;2023-05-24T10:54:35;99495.41;;;18.56;56.24
69855;BME280;57146;48.140;16.304;2023-05-24T10:57:02;99498.91;;;18.60;56.49
69855;BME280;57146;48.140;16.304;2023-05-24T10:59:36;99512.09;;;18.53;56.14
69855;BME280;57146;48.140;16.304;2023-05-24T11:02:06;99506.59;;;18.46;54.93
69855;BME280;57146;48.140;16.304;2023-05-24T11:04:36;99510.75;;;18.43;55.52
69855;BME280;57146;48.140;16.304;2023-05-24T11:07:05;99509.34;;;18.49;56.56
69855;BME280;57146;48.140;16.304;2023-05-24T11:09:32;99515.03;;;18.32;55.75
69855;BME280;57146;48.140;16.304;2023-05-24T11:12:06;99500.25;;;18.34;56.59
69855;BME280;57146;48.140;16.304;2023-05-24T11:14:36;99510.13;;;18.34;56.64
69855;BME280;57146;48.140;16.304;2023-05-24T11:17:03;99503.03;;;18.22;56.65
69855;BME280;57146;48.140;16.304;2023-05-24T11:19:35;99509.19;;;18.26;58.51
69855;BME280;57146;48.140;16.304;2023-05-24T11:22:05;99500.00;;;18.39;57.92
69855;BME280;57146;48.140;16.304;2023-05-24T11:24:33;99504.03;;;18.33;57.59
69855;BME280;57146;48.140;16.304;2023-05-24T11:27:00;99498.69;;;18.49;57.76
69855;BME280;57146;48.140;16.304;2023-05-24T11:29:29;99502.00;;;18.62;58.53
69855;BME280;57146;48.140;16.304;2023-05-24T11:31:58;99497.78;;;18.77;57.20
69855;BME280;57146;48.140;16.304;2023-05-24T11:34:25;99491.41;;;18.81;55.07
69855;BME280;57146;48.140;16.304;2023-05-24T11:36:52;99494.44;;;18.80;55.15
69855;BME280;57146;48.140;16.304;2023-05-24T11:39:19;99494.06;;;18.81;55.21
69855;BME280;57146;48.140;16.304;2023-05-24T11:41:46;99495.72;;;18.86;55.60
69855;BME280;57146;48.140;16.304;2023-05-24T11:44:16;99494.22;;;18.88;55.06
69855;BME280;57146;48.140;16.304;2023-05-24T11:46:43;99488.81;;;18.85;55.91
69855;BME280;57146;48.140;16.304;2023-05-24T11:49:14;99500.97;;;18.82;55.05
69855;BME280;57146;48.140;16.304;2023-05-24T11:51:42;99501.41;;;18.69;54.45
69855;BME280;57146;48.140;16.304;2023-05-24T11:54:09;99488.47;;;18.71;54.48
69855;BME280;57146;48.140;16.304;2023-05-24T11:56:36;99490.31;;;18.82;54.25
69855;BME280;57146;48.140;16.304;2023-05-24T11:59:12;99493.53;;;18.92;54.75
69855;BME280;57146;48.140;16.304;2023-05-24T12:01:40;99488.34;;;18.99;54.31
69855;BME280;57146;48.140;16.304;2023-05-24T12:04:08;99490.03;;;19.07;54.94
69855;BME280;57146;48.140;16.304;2023-05-24T12:06:40;99495.53;;;19.14;54.01
69855;BME280;57146;48.140;16.304;2023-05-24T12:09:09;99495.53;;;19.14;54.13
69855;BME280;57146;48.140;16.304;2023-05-24T12:11:37;99488.34;;;19.18;53.20
69855;BME280;57146;48.140;16.304;2023-05-24T12:14:05;99498.66;;;19.20;54.15
69855;BME280;57146;48.140;16.304;2023-05-24T12:16:32;99499.59;;;19.08;52.81
69855;BME280;57146;48.140;16.304;2023-05-24T12:19:03;99499.06;;;18.83;52.45
69855;BME280;57146;48.140;16.304;2023-05-24T12:21:42;99499.50;;;18.69;53.61
69855;BME280;57146;48.140;16.304;2023-05-24T12:24:11;99504.59;;;18.74;53.87
69855;BME280;57146;48.140;16.304;2023-05-24T12:26:46;99496.34;;;18.79;54.31
69855;BME280;57146;48.140;16.304;2023-05-24T12:29:14;99487.19;;;18.80;54.77
69855;BME280;57146;48.140;16.304;2023-05-24T12:31:43;99476.41;;;18.93;56.04
69855;BME280;57146;48.140;16.304;2023-05-24T12:34:18;99473.59;;;19.05;54.63
69855;BME280;57146;48.140;16.304;2023-05-24T12:36:48;99477.53;;;19.11;53.81
69855;BME280;57146;48.140;16.304;2023-05-24T12:39:23;99480.00;;;19.20;54.04
69855;BME280;57146;48.140;16.304;2023-05-24T12:41:54;99478.31;;;19.11;53.25
69855;BME280;57146;48.140;16.304;2023-05-24T12:44:25;99477.25;;;19.16;53.60
69855;BME280;57146;48.140;16.304;2023-05-24T12:46:54;99475.28;;;19.32;54.29
69855;BME280;57146;48.140;16.304;2023-05-24T12:49:22;99474.22;;;19.37;53.15
69855;BME280;57146;48.140;16.304;2023-05-24T12:51:50;99468.88;;;19.37;53.78
69855;BME280;57146;48.140;16.304;2023-05-24T12:54:20;99473.44;;;19.36;53.98
69855;BME280;57146;48.140;16.304;2023-05-24T12:56:47;99467.63;;;19.31;53.20
69855;BME280;57146;48.140;16.304;2023-05-24T12:59:15;99476.69;;;19.26;53.99
69855;BME280;57146;48.140;16.304;2023-05-24T13:01:42;99474.38;;;19.25;53.48
69855;BME280;57146;48.140;16.304;2023-05-24T13:04:09;99477.19;;;19.32;54.13
69855;BME280;57146;48.140;16.304;2023-05-24T13:06:36;99475.28;;;19.32;53.96
69855;BME280;57146;48.140;16.304;2023-05-24T13:09:03;99469.13;;;19.28;52.37
69855;BME280;57146;48.140;16.304;2023-05-24T13:11:30;99479.28;;;19.23;53.18
69855;BME280;57146;48.140;16.304;2023-05-24T13:13:57;99479.28;;;19.23;52.59
69855;BME280;57146;48.140;16.304;2023-05-24T13:16:24;99475.03;;;19.18;53.16